createdAt,value
2023-04-26T00:02:22.998Z,3.83
2023-04-26T00:04:56.410Z,3.93
2023-04-26T00:07:26.636Z,3.40
2023-04-26T00:09:54.448Z,3.53
2023-04-26T00:12:22.417Z,3.87
2023-04-26T00:14:50.536Z,4.40
2023-04-26T00:17:18.404Z,3.77
2023-04-26T00:19:46.936Z,4.60
2023-04-26T00:22:15.194Z,4.20
2023-04-26T00:24:44.496Z,3.83
2023-04-26T00:27:12.458Z,4.03
2023-04-26T00:29:41.301Z,4.63
2023-04-26T00:32:09.456Z,4.50
2023-04-26T00:34:38.379Z,4.27
2023-04-26T00:37:07.092Z,4.30
2023-04-26T00:39:35.224Z,4.60
2023-04-26T00:42:04.523Z,4.53
2023-04-26T00:44:32.404Z,4.30
2023-04-26T00:47:00.385Z,5.00
2023-04-26T00:49:28.756Z,4.97
2023-04-26T00:51:56.701Z,5.00
2023-04-26T00:54:25.633Z,4.30
2023-04-26T00:56:53.552Z,4.80
2023-04-26T00:59:23.345Z,4.50
2023-04-26T01:01:51.280Z,4.90
2023-04-26T01:04:19.455Z,4.70
2023-04-26T01:06:48.148Z,4.47
2023-04-26T01:09:16.384Z,4.93
2023-04-26T01:11:45.196Z,4.73
2023-04-26T01:14:13.156Z,5.00
2023-04-26T01:16:42.600Z,4.83
2023-04-26T01:19:12.404Z,4.87
2023-04-26T01:21:41.518Z,4.80
2023-04-26T01:24:13.573Z,4.53
2023-04-26T01:26:45.687Z,4.50
2023-04-26T01:29:16.652Z,4.90
2023-04-26T01:31:44.737Z,4.53
2023-04-26T01:34:12.750Z,4.90
2023-04-26T01:36:40.787Z,4.33
2023-04-26T01:39:09.286Z,5.27
2023-04-26T01:41:38.609Z,4.80
2023-04-26T01:44:06.761Z,4.67
2023-04-26T01:46:34.739Z,4.50
2023-04-26T01:49:02.776Z,4.80
2023-04-26T01:51:31.332Z,4.60
2023-04-26T01:54:00.059Z,4.70
2023-04-26T01:56:27.976Z,5.13
2023-04-26T01:58:57.408Z,4.23
2023-04-26T02:01:25.552Z,4.90
2023-04-26T02:03:53.699Z,5.03
2023-04-26T02:06:22.177Z,5.07
2023-04-26T02:08:50.172Z,4.80
2023-04-26T02:11:18.167Z,5.17
2023-04-26T02:13:46.104Z,4.70
2023-04-26T02:16:16.494Z,4.80
2023-04-26T02:18:47.228Z,5.00
2023-04-26T02:21:17.418Z,4.97
2023-04-26T02:23:45.764Z,4.67
2023-04-26T02:26:14.359Z,5.20
2023-04-26T02:28:44.952Z,4.80
2023-04-26T02:31:16.125Z,4.40
2023-04-26T02:33:44.433Z,4.63
2023-04-26T02:36:13.651Z,5.53
2023-04-26T02:38:41.608Z,5.20
2023-04-26T02:41:09.554Z,5.30
2023-04-26T02:43:37.705Z,5.40
2023-04-26T02:46:08.366Z,5.40
2023-04-26T02:48:37.573Z,4.80
2023-04-26T02:51:06.144Z,5.00
2023-04-26T02:53:34.017Z,5.40
2023-04-26T02:56:02.581Z,5.83
2023-04-26T02:58:30.517Z,4.97
2023-04-26T03:01:01.024Z,5.23
2023-04-26T03:03:31.035Z,5.00
2023-04-26T03:06:00.850Z,4.73
2023-04-26T03:08:28.819Z,5.30
2023-04-26T03:10:56.807Z,5.57
2023-04-26T03:13:24.873Z,5.50
2023-04-26T03:15:54.808Z,5.23
2023-04-26T03:18:23.186Z,5.30
2023-04-26T03:20:51.700Z,4.87
2023-04-26T03:23:24.074Z,5.20
2023-04-26T03:25:52.147Z,4.63
2023-04-26T03:28:20.296Z,5.10
2023-04-26T03:30:49.961Z,5.47
2023-04-26T03:33:17.906Z,5.33
2023-04-26T03:35:45.799Z,5.00
2023-04-26T03:38:13.969Z,5.13
2023-04-26T03:40:43.232Z,6.07
2023-04-26T03:43:11.202Z,5.90
2023-04-26T03:45:39.615Z,4.97
2023-04-26T03:48:08.167Z,5.23
2023-04-26T03:50:36.392Z,5.27
2023-04-26T03:53:04.331Z,5.43
2023-04-26T03:55:32.228Z,5.47
2023-04-26T03:58:03.218Z,5.53
2023-04-26T04:00:49.614Z,5.37
2023-04-26T04:03:18.140Z,6.00
2023-04-26T04:05:46.312Z,5.93
2023-04-26T04:08:15.756Z,5.97
2023-04-26T04:10:43.890Z,5.97
2023-04-26T04:13:13.244Z,5.60
2023-04-26T04:15:42.329Z,6.37
2023-04-26T04:18:10.354Z,5.67
2023-04-26T04:20:38.833Z,5.67
2023-04-26T04:23:07.867Z,6.03
2023-04-26T04:25:36.576Z,6.37
2023-04-26T04:28:08.515Z,5.80
2023-04-26T04:30:37.940Z,6.30
2023-04-26T04:33:06.178Z,5.80
2023-04-26T04:35:35.939Z,6.40
2023-04-26T04:38:06.776Z,5.47
2023-04-26T04:40:34.747Z,4.80
2023-04-26T04:43:03.229Z,5.50
2023-04-26T04:45:32.661Z,5.43
2023-04-26T04:48:05.100Z,5.03
2023-04-26T04:50:33.117Z,5.70
2023-04-26T04:53:01.139Z,5.20
2023-04-26T04:55:29.782Z,5.53
2023-04-26T04:57:58.134Z,5.40
2023-04-26T05:00:27.509Z,5.40
2023-04-26T05:03:17.159Z,5.50
2023-04-26T05:05:45.779Z,6.30
2023-04-26T05:08:13.724Z,6.63
2023-04-26T05:10:41.537Z,7.40
2023-04-26T05:13:09.546Z,6.90
2023-04-26T05:15:37.848Z,6.30
2023-04-26T05:18:06.026Z,6.90
2023-04-26T05:20:35.350Z,7.63
2023-04-26T05:23:03.750Z,7.33
2023-04-26T05:25:31.710Z,7.50
2023-04-26T05:28:12.460Z,8.03
2023-04-26T05:30:51.778Z,8.73
2023-04-26T05:33:26.308Z,8.70
2023-04-26T05:36:09.208Z,9.53
2023-04-26T05:38:55.862Z,10.07
2023-04-26T05:41:23.754Z,10.63
2023-04-26T05:43:52.230Z,10.10
2023-04-26T05:46:20.320Z,10.43
2023-04-26T05:48:48.329Z,10.97
2023-04-26T05:51:17.612Z,9.83
2023-04-26T05:53:45.587Z,10.77
2023-04-26T05:56:13.470Z,10.30
2023-04-26T05:58:41.735Z,10.97
2023-04-26T06:01:09.656Z,10.27
2023-04-26T06:03:38.314Z,10.43
2023-04-26T06:06:07.792Z,9.83
2023-04-26T06:08:37.345Z,10.00
2023-04-26T06:11:05.306Z,11.07
2023-04-26T06:13:33.262Z,10.83
2023-04-26T06:16:01.470Z,9.67
2023-04-26T06:18:29.382Z,10.17
2023-04-26T06:20:57.304Z,10.77
2023-04-26T06:23:25.798Z,10.60
2023-04-26T06:25:55.134Z,10.70
2023-04-26T06:28:23.240Z,9.63
2023-04-26T06:30:51.199Z,10.90
2023-04-26T06:33:19.113Z,9.60
2023-04-26T06:35:47.014Z,10.07
2023-04-26T06:38:15.344Z,10.37
2023-04-26T06:40:43.729Z,10.27
2023-04-26T06:43:13.279Z,9.73
2023-04-26T06:46:01.559Z,9.83
2023-04-26T06:48:29.491Z,9.87
2023-04-26T06:50:57.510Z,10.20
2023-04-26T06:53:25.438Z,9.93
2023-04-26T06:55:54.203Z,9.70
2023-04-26T06:58:23.463Z,9.60
2023-04-26T07:00:51.435Z,10.23
2023-04-26T07:03:19.486Z,10.00
2023-04-26T07:05:47.572Z,10.50
2023-04-26T07:08:15.673Z,10.30
2023-04-26T07:10:43.551Z,10.13
2023-04-26T07:13:11.446Z,9.80
2023-04-26T07:15:42.161Z,9.83
2023-04-26T07:18:10.217Z,9.23
2023-04-26T07:20:38.170Z,9.93
2023-04-26T07:23:06.618Z,9.03
2023-04-26T07:25:35.523Z,8.77
2023-04-26T07:28:03.505Z,8.93
2023-04-26T07:30:32.480Z,9.30
2023-04-26T07:33:02.199Z,8.90
2023-04-26T07:35:30.261Z,8.63
2023-04-26T07:37:58.091Z,8.27
2023-04-26T07:40:26.295Z,8.30
2023-04-26T07:42:54.671Z,8.00
2023-04-26T07:45:22.674Z,7.90
2023-04-26T07:47:50.827Z,7.70
2023-04-26T07:50:20.236Z,6.77
2023-04-26T07:52:48.119Z,7.47
2023-04-26T07:55:17.628Z,6.90
2023-04-26T07:57:46.009Z,5.97
2023-04-26T08:00:16.724Z,5.17
2023-04-26T08:02:46.558Z,5.13
2023-04-26T08:05:14.845Z,4.97
2023-04-26T08:07:44.584Z,5.83
2023-04-26T08:10:12.848Z,3.70
2023-04-26T08:12:40.879Z,4.60
2023-04-26T08:15:09.778Z,4.97
2023-04-26T08:17:37.741Z,4.20
2023-04-26T08:20:07.041Z,3.90
2023-04-26T08:22:34.936Z,4.80
2023-04-26T08:25:04.711Z,5.30
2023-04-26T08:27:34.306Z,5.20
2023-04-26T08:30:02.190Z,4.60
2023-04-26T08:32:30.170Z,3.57
2023-04-26T08:34:58.137Z,3.40
2023-04-26T08:37:27.511Z,3.70
2023-04-26T08:39:56.675Z,4.53
2023-04-26T08:42:29.128Z,4.33
2023-04-26T08:44:58.880Z,4.30
2023-04-26T08:47:31.901Z,3.90
2023-04-26T08:50:02.637Z,3.73
2023-04-26T08:52:32.763Z,4.17
2023-04-26T08:55:01.640Z,3.60
2023-04-26T08:57:33.391Z,3.07
2023-04-26T09:00:07.255Z,4.10
2023-04-26T09:02:35.757Z,2.80
2023-04-26T09:05:04.569Z,3.93
2023-04-26T09:07:34.094Z,3.53
2023-04-26T09:10:02.327Z,3.57
2023-04-26T09:12:31.561Z,3.57
2023-04-26T09:15:01.069Z,3.30
2023-04-26T09:17:31.621Z,3.07
2023-04-26T09:20:00.416Z,3.60
2023-04-26T09:22:36.376Z,3.57
2023-04-26T09:25:06.877Z,3.10
2023-04-26T09:27:38.594Z,3.10
2023-04-26T09:30:10.371Z,3.10
2023-04-26T09:32:46.829Z,3.00
2023-04-26T09:35:26.892Z,3.17
2023-04-26T09:38:04.293Z,2.73
2023-04-26T09:40:40.537Z,2.80
2023-04-26T09:43:11.552Z,3.00
2023-04-26T09:45:49.488Z,3.00
2023-04-26T09:48:22.842Z,3.30
2023-04-26T09:50:52.996Z,3.33
2023-04-26T09:53:32.033Z,3.00
2023-04-26T09:56:09.256Z,3.10
2023-04-26T09:59:01.152Z,2.87
2023-04-26T10:01:30.546Z,2.60
2023-04-26T10:03:59.033Z,2.50
2023-04-26T10:06:29.050Z,2.43
2023-04-26T10:11:43.041Z,2.80
2023-04-26T10:14:13.211Z,2.30
2023-04-26T10:16:42.891Z,2.70
2023-04-26T10:19:11.269Z,2.30
2023-04-26T10:21:39.996Z,2.57
2023-04-26T10:24:08.737Z,2.10
2023-04-26T10:26:50.344Z,2.30
2023-04-26T10:29:20.088Z,2.20
2023-04-26T10:32:08.792Z,2.10
2023-04-26T10:34:37.997Z,2.20
2023-04-26T10:37:10.930Z,2.20
2023-04-26T10:39:39.523Z,2.07
2023-04-26T10:42:25.916Z,2.80
2023-04-26T10:44:56.430Z,2.77
2023-04-26T10:47:28.074Z,2.80
2023-04-26T10:50:06.232Z,2.70
2023-04-26T10:52:34.818Z,3.13
2023-04-26T10:55:03.386Z,2.63
2023-04-26T10:57:54.207Z,2.70
2023-04-26T11:00:31.739Z,3.10
2023-04-26T11:03:09.324Z,2.70
2023-04-26T11:05:52.862Z,2.67
2023-04-26T11:08:22.369Z,2.80
2023-04-26T11:10:58.878Z,2.63
2023-04-26T11:13:26.774Z,2.90
2023-04-26T11:16:03.221Z,3.23
2023-04-26T11:18:31.626Z,2.90
2023-04-26T11:20:59.918Z,3.73
2023-04-26T11:23:29.484Z,3.40
2023-04-26T11:25:59.029Z,3.50
2023-04-26T11:28:27.081Z,3.37
2023-04-26T11:30:57.346Z,3.50
2023-04-26T11:33:25.364Z,3.23
2023-04-26T11:35:54.250Z,3.23
2023-04-26T11:38:24.224Z,3.00
2023-04-26T11:40:57.394Z,3.37
2023-04-26T11:43:31.516Z,3.50
2023-04-26T11:46:01.470Z,3.67
2023-04-26T11:48:30.006Z,3.70
2023-04-26T11:50:58.917Z,3.70
2023-04-26T11:53:35.659Z,3.77
2023-04-26T11:56:03.565Z,3.43
2023-04-26T11:58:31.501Z,3.87
2023-04-26T12:01:01.872Z,4.10
2023-04-26T12:03:35.319Z,3.90
2023-04-26T12:06:03.828Z,3.70
2023-04-26T12:08:33.889Z,3.33
2023-04-26T12:11:02.717Z,3.80
2023-04-26T12:13:30.990Z,3.73
2023-04-26T12:15:58.950Z,3.37
2023-04-26T12:18:33.504Z,3.73
2023-04-26T12:21:02.319Z,3.77
2023-04-26T12:23:40.167Z,4.90
2023-04-26T12:26:10.947Z,3.97
2023-04-26T12:28:38.990Z,4.17
2023-04-26T12:31:07.492Z,4.00
2023-04-26T12:33:37.280Z,4.23
2023-04-26T12:36:09.839Z,4.30
2023-04-26T12:38:38.000Z,4.30
2023-04-26T12:41:06.166Z,4.17
2023-04-26T12:43:34.142Z,4.20
2023-04-26T12:46:02.453Z,3.83
2023-04-26T12:48:30.452Z,4.17
2023-04-26T12:50:59.715Z,4.43
2023-04-26T12:53:27.677Z,4.67
2023-04-26T12:55:55.860Z,4.67
2023-04-26T12:58:23.792Z,5.00
2023-04-26T13:00:51.803Z,4.40
2023-04-26T13:03:19.886Z,4.10
2023-04-26T13:05:47.907Z,4.10
2023-04-26T13:08:17.154Z,4.47
2023-04-26T13:10:45.102Z,4.37
2023-04-26T13:13:13.116Z,4.07
2023-04-26T13:15:41.162Z,4.27
2023-04-26T13:18:09.168Z,4.77
2023-04-26T13:20:38.149Z,4.50
2023-04-26T13:23:06.172Z,4.77
2023-04-26T13:25:35.493Z,4.57
2023-04-26T13:28:03.807Z,4.70
2023-04-26T13:30:31.936Z,4.70
2023-04-26T13:33:00.617Z,4.30
2023-04-26T13:35:28.598Z,4.47
2023-04-26T13:37:56.637Z,4.30
2023-04-26T13:40:24.521Z,4.00
2023-04-26T13:42:53.741Z,4.57
2023-04-26T13:45:21.798Z,4.90
2023-04-26T13:47:49.725Z,4.70
2023-04-26T13:50:17.817Z,5.43
2023-04-26T13:52:45.782Z,4.80
2023-04-26T13:55:14.474Z,5.17
2023-04-26T13:57:42.593Z,4.70
2023-04-26T14:00:13.955Z,4.93
2023-04-26T14:02:42.037Z,4.97
2023-04-26T14:05:10.623Z,5.20
2023-04-26T14:07:38.536Z,5.07
2023-04-26T14:10:07.433Z,5.40
2023-04-26T14:12:35.762Z,5.90
2023-04-26T14:15:05.647Z,4.80
2023-04-26T14:17:35.092Z,5.27
2023-04-26T14:20:03.015Z,5.83
2023-04-26T14:22:30.884Z,5.63
2023-04-26T14:24:58.791Z,5.23
2023-04-26T14:27:26.896Z,5.43
2023-04-26T14:29:54.839Z,5.43
2023-04-26T14:32:22.788Z,5.50
2023-04-26T14:34:52.125Z,5.30
2023-04-26T14:37:22.447Z,5.30
2023-04-26T14:39:50.639Z,5.33
2023-04-26T14:42:18.538Z,6.00
2023-04-26T14:44:47.563Z,5.23
2023-04-26T14:47:15.590Z,5.77
2023-04-26T14:49:43.563Z,5.43
2023-04-26T14:52:12.862Z,5.50
2023-04-26T14:54:41.425Z,5.60
2023-04-26T14:57:10.220Z,5.33
2023-04-26T14:59:38.172Z,6.13
2023-04-26T15:02:06.236Z,5.77
2023-04-26T15:04:35.675Z,5.33
2023-04-26T15:07:04.262Z,6.20
2023-04-26T15:09:33.874Z,5.80
2023-04-26T15:12:02.429Z,5.80
2023-04-26T15:14:30.289Z,5.80
2023-04-26T15:16:58.331Z,5.80
2023-04-26T15:19:26.588Z,5.60
2023-04-26T15:21:54.460Z,5.83
2023-04-26T15:24:22.498Z,5.73
2023-04-26T15:26:51.817Z,5.50
2023-04-26T15:29:19.678Z,5.53
2023-04-26T15:31:47.591Z,5.33
2023-04-26T15:34:16.058Z,4.70
2023-04-26T15:36:44.037Z,4.93
2023-04-26T15:39:12.131Z,4.97
2023-04-26T15:41:39.933Z,4.93
2023-04-26T15:44:09.249Z,5.10
2023-04-26T15:46:38.157Z,4.40
2023-04-26T15:49:06.547Z,5.10
2023-04-26T15:51:34.481Z,4.37
2023-04-26T15:54:02.608Z,4.50
2023-04-26T15:56:30.592Z,5.13
2023-04-26T15:58:58.561Z,4.73
2023-04-26T16:01:29.586Z,4.80
2023-04-26T16:03:57.705Z,4.27
2023-04-26T16:06:25.701Z,4.97
2023-04-26T16:08:53.675Z,4.30
2023-04-26T16:11:21.687Z,4.30
2023-04-26T16:13:51.783Z,4.60
2023-04-26T16:16:20.153Z,4.73
2023-04-26T16:18:49.432Z,4.67
2023-04-26T16:21:17.359Z,4.53
2023-04-26T16:23:45.237Z,4.27
2023-04-26T16:26:13.321Z,4.00
2023-04-26T16:28:41.617Z,4.87
2023-04-26T16:31:09.619Z,4.70
2023-04-26T16:33:37.666Z,4.40
2023-04-26T16:36:09.003Z,4.53
2023-04-26T16:38:37.051Z,4.73
2023-04-26T16:41:05.929Z,4.43
2023-04-26T16:43:33.824Z,4.33
2023-04-26T16:46:02.982Z,4.30
2023-04-26T16:48:32.654Z,4.30
2023-04-26T16:51:00.956Z,4.57
2023-04-26T16:53:30.667Z,4.67
2023-04-26T16:55:59.141Z,4.10
2023-04-26T16:58:27.360Z,3.90
2023-04-26T17:00:55.348Z,4.13
2023-04-26T17:03:24.659Z,3.80
2023-04-26T17:05:52.867Z,4.17
2023-04-26T17:08:21.889Z,4.10
2023-04-26T17:10:51.825Z,3.70
2023-04-26T17:13:20.092Z,3.50
2023-04-26T17:15:49.102Z,3.73
2023-04-26T17:18:17.044Z,4.30
2023-04-26T17:20:45.025Z,4.00
2023-04-26T17:23:12.940Z,4.00
2023-04-26T17:25:40.854Z,4.57
2023-04-26T17:28:10.473Z,3.90
2023-04-26T17:30:38.389Z,3.80
2023-04-26T17:33:07.378Z,3.70
2023-04-26T17:35:35.386Z,4.03
2023-04-26T17:38:03.291Z,4.17
2023-04-26T17:40:31.310Z,4.23
2023-04-26T17:42:59.410Z,3.70
2023-04-26T17:45:28.765Z,3.50
2023-04-26T17:47:56.890Z,3.60
2023-04-26T17:50:24.906Z,3.57
2023-04-26T17:52:52.737Z,3.83
2023-04-26T17:55:20.952Z,3.43
2023-04-26T17:57:48.774Z,3.70
2023-04-26T18:00:17.323Z,3.90
2023-04-26T18:02:47.197Z,3.60
2023-04-26T18:05:16.284Z,3.60
2023-04-26T18:07:44.153Z,3.30
2023-04-26T18:10:12.218Z,3.40
2023-04-26T18:12:40.168Z,3.10
2023-04-26T18:15:09.194Z,3.67
2023-04-26T18:17:37.188Z,3.33
2023-04-26T18:20:07.933Z,3.30
2023-04-26T18:22:35.809Z,3.53
2023-04-26T18:25:03.971Z,3.17
2023-04-26T18:27:32.017Z,3.00
2023-04-26T18:30:00.050Z,3.00
2023-04-26T18:32:28.101Z,3.27
2023-04-26T18:34:56.010Z,3.33
2023-04-26T18:37:25.534Z,3.10
2023-04-26T18:39:53.436Z,3.13
2023-04-26T18:42:21.308Z,3.10
2023-04-26T18:44:49.192Z,3.00
2023-04-26T18:47:17.085Z,3.10
2023-04-26T18:49:51.191Z,3.43
2023-04-26T18:52:19.046Z,3.20
2023-04-26T18:54:48.277Z,3.20
2023-04-26T18:57:18.089Z,3.27
2023-04-26T18:59:46.070Z,3.63
2023-04-26T19:02:14.050Z,3.50
2023-04-26T19:04:42.126Z,3.47
2023-04-26T19:07:10.613Z,4.47
2023-04-26T19:09:50.530Z,3.97
2023-04-26T19:12:24.009Z,3.70
2023-04-26T19:14:52.341Z,4.03
2023-04-26T19:17:20.261Z,3.90
2023-04-26T19:19:51.506Z,4.10
2023-04-26T19:22:19.565Z,4.13
2023-04-26T19:24:49.757Z,3.83
2023-04-26T19:27:17.879Z,4.10
2023-04-26T19:29:47.104Z,4.30
2023-04-26T19:32:15.176Z,3.77
2023-04-26T19:34:43.331Z,3.80
2023-04-26T19:37:11.270Z,4.10
2023-04-26T19:39:39.131Z,5.47
2023-04-26T19:42:06.973Z,4.10
2023-04-26T19:44:34.821Z,4.20
2023-04-26T19:47:05.198Z,4.83
2023-04-26T19:49:33.208Z,4.30
2023-04-26T19:52:02.331Z,4.27
2023-04-26T19:54:30.501Z,4.57
2023-04-26T19:56:58.358Z,4.30
2023-04-26T19:59:26.438Z,6.43
2023-04-26T20:01:54.412Z,4.57
2023-04-26T20:04:23.698Z,4.30
2023-04-26T20:06:51.868Z,4.00
2023-04-26T20:09:19.714Z,5.10
2023-04-26T20:11:47.556Z,5.70
2023-04-26T20:14:16.097Z,5.00
2023-04-26T20:16:44.282Z,7.07
2023-04-26T20:19:12.230Z,4.10
2023-04-26T20:21:41.494Z,4.00
2023-04-26T20:24:09.736Z,4.20
2023-04-26T20:26:37.633Z,6.20
2023-04-26T20:29:05.858Z,5.20
2023-04-26T20:31:33.895Z,4.40
2023-04-26T20:34:01.870Z,3.70
2023-04-26T20:36:29.768Z,4.47
2023-04-26T20:38:58.995Z,4.33
2023-04-26T20:41:26.874Z,4.93
2023-04-26T20:43:54.933Z,3.93
2023-04-26T20:46:22.888Z,4.50
2023-04-26T20:48:50.795Z,4.90
2023-04-26T20:51:18.645Z,4.40
2023-04-26T20:53:46.516Z,4.63
2023-04-26T20:56:16.108Z,4.30
2023-04-26T20:58:43.930Z,4.53
2023-04-26T21:01:12.063Z,7.20
2023-04-26T21:03:39.996Z,6.73
2023-04-26T21:06:08.046Z,7.10
2023-04-26T21:08:36.998Z,5.60
2023-04-26T21:11:05.392Z,5.30
2023-04-26T21:13:34.584Z,5.43
2023-04-26T21:16:20.152Z,4.87
2023-04-26T21:18:48.123Z,4.87
2023-04-26T21:21:16.004Z,4.57
2023-04-26T21:23:43.937Z,4.63
2023-04-26T21:26:11.871Z,4.57
2023-04-26T21:28:41.085Z,4.53
2023-04-26T21:31:09.126Z,4.43
2023-04-26T21:33:37.006Z,4.43
2023-04-26T21:36:05.481Z,4.70
2023-04-26T21:38:33.428Z,4.83
2023-04-26T21:41:01.313Z,4.80
2023-04-26T21:43:29.168Z,5.20
2023-04-26T21:45:58.794Z,5.23
2023-04-26T21:48:27.158Z,5.37
2023-04-26T21:50:54.999Z,5.23
2023-04-26T21:53:22.862Z,4.97
2023-04-26T21:55:54.240Z,4.93
2023-04-26T21:58:22.360Z,4.90
2023-04-26T22:00:50.426Z,5.03
2023-04-26T22:03:20.057Z,5.33
2023-04-26T22:05:48.103Z,5.20
2023-04-26T22:08:16.214Z,5.70
2023-04-26T22:10:44.245Z,5.30
2023-04-26T22:13:12.110Z,5.53
2023-04-26T22:15:40.076Z,5.67
2023-04-26T22:18:08.013Z,6.30
2023-04-26T22:20:37.265Z,5.83
2023-04-26T22:23:05.174Z,4.87
2023-04-26T22:25:33.275Z,5.07
2023-04-26T22:28:19.650Z,5.07
2023-04-26T22:30:47.622Z,5.33
2023-04-26T22:33:15.548Z,5.03
2023-04-26T22:35:45.696Z,5.00
2023-04-26T22:38:13.516Z,4.93
2023-04-26T22:40:41.895Z,5.40
2023-04-26T22:43:09.736Z,5.10
2023-04-26T22:45:37.685Z,5.13
2023-04-26T22:48:05.842Z,5.53
2023-04-26T22:50:33.765Z,5.73
2023-04-26T22:53:03.119Z,5.47
2023-04-26T22:55:31.024Z,5.83
2023-04-26T22:57:58.934Z,5.80
2023-04-26T23:00:26.864Z,6.43
2023-04-26T23:02:54.795Z,6.27
2023-04-26T23:05:22.786Z,6.00
2023-04-26T23:07:50.681Z,5.80
2023-04-26T23:10:20.103Z,6.23
2023-04-26T23:12:49.106Z,6.00
2023-04-26T23:15:16.969Z,5.80
2023-04-26T23:17:45.496Z,6.03
2023-04-26T23:20:13.870Z,5.73
2023-04-26T23:22:42.299Z,6.03
2023-04-26T23:25:31.271Z,6.73
2023-04-26T23:27:59.162Z,5.93
2023-04-26T23:30:27.104Z,6.63
2023-04-26T23:32:55.090Z,6.80
2023-04-26T23:35:22.981Z,6.43
2023-04-26T23:37:52.441Z,6.60
2023-04-26T23:40:20.458Z,6.20
2023-04-26T23:42:49.653Z,6.47
2023-04-26T23:45:19.103Z,6.20
2023-04-26T23:47:47.055Z,6.43
2023-04-26T23:50:14.981Z,5.87
2023-04-26T23:52:42.838Z,6.10
2023-04-26T23:55:11.449Z,5.80
2023-04-26T23:57:39.455Z,5.97
